createdAt,value
2018-03-11T00:00:01.127Z,17.10
2018-03-11T00:02:35.711Z,18.73
2018-03-11T00:05:10.591Z,18.83
2018-03-11T00:07:45.391Z,17.43
2018-03-11T00:10:20.183Z,18.00
2018-03-11T00:12:54.886Z,19.43
2018-03-11T00:15:29.579Z,17.50
2018-03-11T00:18:04.340Z,19.13
2018-03-11T00:20:39.607Z,20.63
2018-03-11T00:23:14.342Z,18.20
2018-03-11T00:25:48.958Z,22.03
2018-03-11T00:28:23.734Z,18.40
2018-03-11T00:30:58.388Z,18.20
2018-03-11T00:33:33.046Z,20.97
2018-03-11T00:36:07.670Z,19.60
2018-03-11T00:38:42.377Z,19.40
2018-03-11T00:41:17.909Z,19.23
2018-03-11T00:43:52.376Z,18.67
2018-03-11T00:46:27.022Z,20.93
2018-03-11T00:49:01.676Z,20.00
2018-03-11T00:51:36.390Z,17.93
2018-03-11T00:54:10.845Z,22.13
2018-03-11T00:56:45.494Z,20.80
2018-03-11T00:59:20.543Z,26.27
2018-03-11T01:01:55.103Z,22.70
2018-03-11T01:04:29.674Z,24.73
2018-03-11T01:07:04.020Z,20.73
2018-03-11T01:09:38.629Z,19.20
2018-03-11T01:12:14.117Z,24.50
2018-03-11T01:14:43.498Z,20.40
2018-03-11T01:17:18.205Z,19.77
2018-03-11T01:19:53.011Z,23.63
2018-03-11T01:22:27.648Z,21.63
2018-03-11T01:25:02.258Z,21.73
2018-03-11T01:27:36.929Z,20.90
2018-03-11T01:30:11.569Z,24.03
2018-03-11T01:32:46.119Z,21.90
2018-03-11T01:35:20.990Z,22.17
2018-03-11T01:37:55.756Z,21.47
2018-03-11T01:40:30.555Z,21.90
2018-03-11T01:43:05.317Z,26.57
2018-03-11T01:45:39.927Z,22.53
2018-03-11T01:48:14.752Z,22.23
2018-03-11T01:50:49.304Z,23.73
2018-03-11T01:53:24.012Z,21.87
2018-03-11T01:55:58.547Z,23.07
2018-03-11T01:58:33.573Z,23.00
2018-03-11T02:01:08.496Z,22.07
2018-03-11T02:03:43.176Z,20.77
2018-03-11T02:06:18.616Z,21.67
2018-03-11T02:08:53.291Z,20.87
2018-03-11T02:11:27.850Z,20.87
2018-03-11T02:14:03.172Z,21.00
2018-03-11T02:16:38.516Z,19.87
2018-03-11T02:19:13.239Z,20.70
2018-03-11T02:21:47.924Z,20.70
2018-03-11T02:24:22.682Z,22.67
2018-03-11T02:26:57.378Z,22.50
2018-03-11T02:29:31.857Z,22.20
2018-03-11T02:32:06.566Z,21.70
2018-03-11T02:34:41.541Z,22.07
2018-03-11T02:37:16.402Z,22.60
2018-03-11T02:39:51.087Z,22.03
2018-03-11T02:42:26.511Z,24.70
2018-03-11T02:45:01.291Z,22.80
2018-03-11T02:47:35.937Z,21.17
2018-03-11T02:50:10.440Z,19.67
2018-03-11T02:52:45.331Z,18.17
2018-03-11T02:55:20.752Z,19.40
2018-03-11T02:57:56.317Z,21.60
2018-03-11T03:00:31.547Z,25.33
2018-03-11T03:03:06.873Z,21.50
2018-03-11T03:05:41.636Z,20.00
2018-03-11T03:08:16.252Z,21.57
2018-03-11T03:10:50.989Z,28.90
2018-03-11T03:13:25.573Z,22.60
2018-03-11T03:16:00.221Z,25.13
2018-03-11T03:18:34.792Z,24.97
2018-03-11T03:21:10.251Z,23.97
2018-03-11T03:23:44.927Z,23.97
2018-03-11T03:26:19.608Z,27.27
2018-03-11T03:28:54.389Z,25.53
2018-03-11T03:31:29.140Z,25.10
2018-03-11T03:34:03.973Z,28.23
2018-03-11T03:36:39.569Z,26.47
2018-03-11T03:39:15.179Z,26.20
2018-03-11T03:41:44.621Z,27.13
2018-03-11T03:44:20.106Z,26.60
2018-03-11T03:46:54.931Z,27.87
2018-03-11T03:49:29.615Z,24.87
2018-03-11T03:51:59.101Z,26.90
2018-03-11T03:54:33.771Z,27.60
2018-03-11T03:57:08.520Z,27.43
2018-03-11T03:59:43.198Z,30.30
2018-03-11T04:02:13.135Z,31.07
2018-03-11T04:04:48.421Z,28.83
2018-03-11T04:07:23.185Z,28.47
2018-03-11T04:09:57.732Z,29.80
2018-03-11T04:12:32.317Z,27.90
2018-03-11T04:15:06.855Z,33.30
2018-03-11T04:17:42.216Z,29.20
2018-03-11T04:20:17.423Z,27.50
2018-03-11T04:22:52.202Z,31.93
2018-03-11T04:25:27.432Z,27.10
2018-03-11T04:28:01.993Z,28.90
2018-03-11T04:30:36.562Z,27.50
2018-03-11T04:33:11.922Z,31.83
2018-03-11T04:35:46.462Z,28.33
2018-03-11T04:38:21.841Z,27.90
2018-03-11T04:40:56.780Z,25.93
2018-03-11T04:43:32.257Z,28.73
2018-03-11T04:46:06.790Z,27.10
2018-03-11T04:48:41.517Z,27.80
2018-03-11T04:51:16.292Z,29.80
2018-03-11T04:53:51.999Z,26.47
2018-03-11T04:56:26.728Z,29.90
2018-03-11T04:59:01.432Z,26.50
2018-03-11T05:01:37.197Z,25.70
2018-03-11T05:04:12.585Z,24.67
2018-03-11T05:06:47.672Z,26.33
2018-03-11T05:09:22.431Z,26.27
2018-03-11T05:11:57.176Z,27.00
2018-03-11T05:14:31.805Z,27.93
2018-03-11T05:17:07.182Z,27.83
2018-03-11T05:19:41.918Z,26.93
2018-03-11T05:22:16.521Z,25.83
2018-03-11T05:24:51.124Z,26.70
2018-03-11T05:27:26.243Z,30.73
2018-03-11T05:30:00.878Z,26.40
2018-03-11T05:32:35.741Z,26.93
2018-03-11T05:35:10.305Z,24.87
2018-03-11T05:37:45.340Z,27.30
2018-03-11T05:40:20.283Z,26.23
2018-03-11T05:42:54.994Z,27.60
2018-03-11T05:45:29.837Z,24.93
2018-03-11T05:48:00.482Z,27.27
2018-03-11T05:50:35.398Z,23.43
2018-03-11T05:53:10.328Z,23.83
2018-03-11T05:55:45.326Z,24.83
2018-03-11T05:58:19.889Z,22.50
2018-03-11T06:00:54.549Z,26.13
2018-03-11T06:03:30.155Z,21.13
2018-03-11T06:06:04.877Z,23.40
2018-03-11T06:08:39.716Z,20.37
2018-03-11T06:11:14.575Z,23.13
2018-03-11T06:13:49.992Z,20.30
2018-03-11T06:16:24.796Z,21.60
2018-03-11T06:18:59.522Z,18.37
2018-03-11T06:21:35.671Z,16.73
2018-03-11T06:24:10.285Z,21.27
2018-03-11T06:26:45.184Z,19.57
2018-03-11T06:29:20.054Z,21.47
2018-03-11T06:31:54.820Z,19.47
2018-03-11T06:34:29.586Z,17.87
2018-03-11T06:37:04.731Z,19.77
2018-03-11T06:39:39.285Z,19.90
2018-03-11T06:42:14.099Z,18.33
2018-03-11T06:44:49.040Z,19.67
2018-03-11T06:47:18.691Z,18.10
2018-03-11T06:49:53.247Z,17.80
2018-03-11T06:52:27.864Z,19.20
2018-03-11T06:55:03.135Z,18.30
2018-03-11T06:57:37.817Z,17.67
2018-03-11T07:00:12.924Z,19.47
2018-03-11T07:02:47.582Z,16.00
2018-03-11T07:05:22.183Z,21.60
2018-03-11T07:07:57.688Z,16.13
2018-03-11T07:10:33.787Z,17.77
2018-03-11T07:13:08.425Z,18.93
2018-03-11T07:15:42.929Z,17.03
2018-03-11T07:18:18.244Z,16.53
2018-03-11T07:20:52.788Z,15.97
2018-03-11T07:23:27.448Z,13.87
2018-03-11T07:26:02.052Z,16.93
2018-03-11T07:28:36.809Z,14.40
2018-03-11T07:31:11.339Z,13.50
2018-03-11T07:33:45.990Z,14.33
2018-03-11T07:36:20.569Z,13.70
2018-03-11T07:38:55.383Z,14.00
2018-03-11T07:41:30.016Z,12.80
2018-03-11T07:44:05.332Z,13.63
2018-03-11T07:46:40.136Z,13.70
2018-03-11T07:49:15.840Z,14.27
2018-03-11T07:51:50.566Z,14.00
2018-03-11T07:54:22.199Z,14.70
2018-03-11T07:56:56.849Z,17.07
2018-03-11T07:59:31.456Z,13.93
2018-03-11T08:02:05.956Z,13.33
2018-03-11T08:04:40.522Z,13.83
2018-03-11T08:07:15.396Z,13.43
2018-03-11T08:09:50.691Z,13.60
2018-03-11T08:12:26.023Z,14.67
2018-03-11T08:15:00.525Z,13.33
2018-03-11T08:17:35.290Z,16.47
2018-03-11T08:20:08.235Z,15.60
2018-03-11T08:22:42.809Z,19.07
2018-03-11T08:25:17.532Z,17.53
2018-03-11T08:27:52.109Z,17.57
2018-03-11T08:30:26.295Z,15.57
2018-03-11T08:33:01.071Z,17.57
2018-03-11T08:35:36.588Z,17.70
2018-03-11T08:38:11.151Z,18.00
2018-03-11T08:40:45.750Z,19.00
2018-03-11T08:43:20.377Z,17.87
2018-03-11T08:45:54.993Z,16.13
2018-03-11T08:48:30.337Z,20.07
2018-03-11T08:51:04.864Z,18.43
2018-03-11T08:53:39.466Z,15.63
2018-03-11T08:56:14.035Z,17.50
2018-03-11T08:58:48.764Z,17.50
2018-03-11T09:01:24.228Z,17.40
2018-03-11T09:03:58.860Z,18.53
2018-03-11T09:06:33.544Z,17.13
2018-03-11T09:09:08.195Z,16.20
2018-03-11T09:11:44.427Z,18.03
2018-03-11T09:14:19.073Z,16.33
2018-03-11T09:16:54.397Z,16.33
2018-03-11T09:19:29.028Z,16.97
2018-03-11T09:22:03.722Z,18.03
2018-03-11T09:24:39.177Z,17.53
2018-03-11T09:27:14.148Z,17.10
2018-03-11T09:29:48.765Z,20.27
2018-03-11T09:32:23.553Z,16.10
2018-03-11T09:34:58.203Z,14.70
2018-03-11T09:37:32.907Z,16.73
2018-03-11T09:40:07.601Z,15.90
2018-03-11T09:42:43.090Z,15.67
2018-03-11T09:45:17.734Z,15.33
2018-03-11T09:47:52.379Z,15.97
2018-03-11T09:50:26.956Z,14.90
2018-03-11T09:53:01.520Z,17.70
2018-03-11T09:55:36.058Z,14.80
2018-03-11T09:58:10.551Z,13.60
2018-03-11T10:00:45.019Z,19.90
2018-03-11T10:03:20.518Z,14.40
2018-03-11T10:05:55.345Z,13.87
2018-03-11T10:08:29.934Z,14.70
2018-03-11T10:11:05.398Z,14.00
2018-03-11T10:13:40.196Z,14.73
2018-03-11T10:16:15.113Z,14.70
2018-03-11T10:18:50.043Z,14.40
2018-03-11T10:21:24.715Z,12.30
2018-03-11T10:23:59.278Z,12.83
2018-03-11T10:26:33.990Z,12.90
2018-03-11T10:29:08.476Z,13.80
2018-03-11T10:31:43.129Z,11.93
2018-03-11T10:34:17.872Z,10.60
2018-03-11T10:36:52.418Z,17.03
2018-03-11T10:39:26.646Z,12.80
2018-03-11T10:42:01.304Z,12.40
2018-03-11T10:44:35.920Z,12.53
2018-03-11T10:47:10.599Z,10.53
2018-03-11T10:49:45.316Z,10.60
2018-03-11T10:52:19.992Z,10.20
2018-03-11T10:54:54.817Z,9.03
2018-03-11T10:57:29.388Z,9.70
2018-03-11T11:00:04.232Z,9.30
2018-03-11T11:02:38.919Z,9.07
2018-03-11T11:05:13.438Z,10.10
2018-03-11T11:07:48.139Z,8.40
2018-03-11T11:10:22.795Z,7.77
2018-03-11T11:12:57.468Z,7.03
2018-03-11T11:15:31.916Z,6.80
2018-03-11T11:18:06.642Z,6.40
2018-03-11T11:20:41.333Z,6.63
2018-03-11T11:23:15.950Z,6.53
2018-03-11T11:25:50.532Z,9.90
2018-03-11T11:28:25.045Z,5.27
2018-03-11T11:31:00.356Z,6.87
2018-03-11T11:33:34.837Z,4.93
2018-03-11T11:36:09.419Z,4.73
2018-03-11T11:38:43.993Z,6.10
2018-03-11T11:41:18.463Z,4.00
2018-03-11T11:43:53.116Z,5.53
2018-03-11T11:46:28.835Z,4.80
2018-03-11T11:49:03.730Z,3.97
2018-03-11T11:51:38.392Z,3.97
2018-03-11T11:54:13.005Z,5.30
2018-03-11T11:56:47.744Z,3.63
2018-03-11T11:59:22.729Z,4.80
2018-03-11T12:01:58.024Z,4.97
2018-03-11T12:04:32.848Z,4.13
2018-03-11T12:07:07.437Z,4.23
2018-03-11T12:09:42.119Z,3.93
2018-03-11T12:12:16.675Z,3.90
2018-03-11T12:14:51.470Z,3.63
2018-03-11T12:17:26.080Z,3.83
2018-03-11T12:20:00.782Z,4.53
2018-03-11T12:22:35.522Z,5.53
2018-03-11T12:25:10.365Z,3.73
2018-03-11T12:27:44.952Z,6.67
2018-03-11T12:30:19.399Z,9.10
2018-03-11T12:32:53.964Z,4.13
2018-03-11T12:35:28.682Z,3.90
2018-03-11T12:38:03.436Z,3.67
2018-03-11T12:40:38.287Z,4.10
2018-03-11T12:43:13.855Z,3.83
2018-03-11T12:45:49.520Z,3.30
2018-03-11T12:48:24.207Z,4.33
2018-03-11T12:50:58.788Z,4.00
2018-03-11T12:53:34.157Z,3.83
2018-03-11T12:56:08.734Z,4.00
2018-03-11T12:58:43.381Z,3.27
2018-03-11T13:01:17.936Z,4.47
2018-03-11T13:03:52.491Z,3.57
2018-03-11T13:06:31.087Z,4.30
2018-03-11T13:09:05.878Z,3.67
2018-03-11T13:11:40.840Z,3.10
2018-03-11T13:14:15.897Z,3.33
2018-03-11T13:16:50.626Z,2.83
2018-03-11T13:19:26.106Z,8.70
2018-03-11T13:22:00.834Z,2.70
2018-03-11T13:24:35.324Z,3.77
2018-03-11T13:27:09.912Z,2.53
2018-03-11T13:29:44.470Z,3.20
2018-03-11T13:32:30.433Z,4.00
2018-03-11T13:35:04.761Z,2.97
2018-03-11T13:37:40.334Z,3.50
2018-03-11T13:40:27.081Z,3.20
2018-03-11T13:43:02.367Z,2.70
2018-03-11T13:45:48.639Z,2.70
2018-03-11T13:48:23.337Z,3.97
2018-03-11T13:50:57.851Z,3.13
2018-03-11T13:53:44.038Z,4.63
2018-03-11T13:56:18.611Z,3.67
2018-03-11T13:58:53.286Z,2.60
2018-03-11T14:01:27.839Z,2.67
2018-03-11T14:04:02.454Z,2.40
2018-03-11T14:06:37.001Z,2.50
2018-03-11T14:09:11.838Z,2.40
2018-03-11T14:11:46.358Z,2.13
2018-03-11T14:14:20.924Z,3.00
2018-03-11T14:16:56.251Z,2.60
2018-03-11T14:19:31.870Z,2.73
2018-03-11T14:22:06.528Z,2.40
2018-03-11T14:24:41.738Z,2.57
2018-03-11T14:27:16.327Z,2.10
2018-03-11T14:29:50.901Z,2.30
2018-03-11T14:32:25.450Z,2.73
2018-03-11T14:35:00.152Z,2.70
2018-03-11T14:37:34.740Z,2.83
2018-03-11T14:40:09.210Z,2.57
2018-03-11T14:42:43.848Z,3.90
2018-03-11T14:45:19.175Z,2.00
2018-03-11T14:47:53.779Z,2.63
2018-03-11T14:50:28.307Z,3.00
2018-03-11T14:53:03.116Z,2.43
2018-03-11T14:55:37.654Z,2.17
2018-03-11T14:58:13.003Z,4.60
2018-03-11T15:00:47.648Z,2.40
2018-03-11T15:03:22.285Z,2.30
2018-03-11T15:05:56.948Z,2.30
2018-03-11T15:08:31.378Z,2.40
2018-03-11T15:11:06.168Z,2.07
2018-03-11T15:13:41.083Z,4.50
2018-03-11T15:16:16.371Z,4.40
2018-03-11T15:18:50.931Z,3.00
2018-03-11T15:21:25.572Z,2.50
2018-03-11T15:24:01.812Z,6.83
2018-03-11T15:26:36.493Z,3.43
2018-03-11T15:29:11.240Z,4.57
2018-03-11T15:31:45.856Z,3.30
2018-03-11T15:34:21.500Z,2.67
2018-03-11T15:36:56.160Z,2.87
2018-03-11T15:39:32.388Z,2.80
2018-03-11T15:42:06.843Z,2.90
2018-03-11T15:44:41.438Z,2.90
2018-03-11T15:47:15.929Z,3.30
2018-03-11T15:49:50.512Z,2.67
2018-03-11T15:52:25.089Z,3.60
2018-03-11T15:54:59.727Z,3.10
2018-03-11T15:57:34.303Z,2.80
2018-03-11T16:00:08.852Z,2.50
2018-03-11T16:02:43.351Z,2.20
2018-03-11T16:05:18.976Z,3.20
2018-03-11T16:07:53.752Z,2.40
2018-03-11T16:10:29.235Z,2.10
2018-03-11T16:13:04.492Z,2.00
2018-03-11T16:15:38.659Z,2.00
2018-03-11T16:18:15.799Z,1.87
2018-03-11T16:20:50.656Z,2.00
2018-03-11T16:23:25.618Z,2.00
2018-03-11T16:26:00.175Z,2.20
2018-03-11T16:28:35.879Z,2.00
2018-03-11T16:31:10.579Z,2.37
2018-03-11T16:33:45.210Z,2.20
2018-03-11T16:36:19.925Z,2.30
2018-03-11T16:38:55.363Z,2.30
2018-03-11T16:41:30.658Z,3.20
2018-03-11T16:44:05.204Z,2.60
2018-03-11T16:46:40.588Z,2.70
2018-03-11T16:49:15.233Z,2.80
2018-03-11T16:51:49.719Z,2.60
2018-03-11T16:54:24.356Z,3.87
2018-03-11T16:56:58.922Z,2.60
2018-03-11T16:59:33.287Z,3.03
2018-03-11T17:02:08.772Z,2.43
2018-03-11T17:04:43.446Z,2.70
2018-03-11T17:07:18.770Z,3.33
2018-03-11T17:09:53.358Z,3.90
2018-03-11T17:12:27.969Z,3.20
2018-03-11T17:15:02.785Z,3.43
2018-03-11T17:17:37.474Z,3.40
2018-03-11T17:20:12.008Z,4.50
2018-03-11T17:22:46.625Z,3.50
2018-03-11T17:25:21.181Z,4.33
2018-03-11T17:27:57.309Z,3.57
2018-03-11T17:30:31.950Z,3.60
2018-03-11T17:33:06.473Z,3.90
2018-03-11T17:35:41.093Z,4.00
2018-03-11T17:38:15.842Z,4.17
2018-03-11T17:40:51.317Z,5.47
2018-03-11T17:43:25.992Z,4.50
2018-03-11T17:46:01.537Z,3.90
2018-03-11T17:48:36.201Z,3.40
2018-03-11T17:51:11.692Z,5.57
2018-03-11T17:53:47.141Z,3.60
2018-03-11T17:56:21.833Z,6.10
2018-03-11T17:58:57.253Z,4.60
2018-03-11T18:01:33.336Z,4.27
2018-03-11T18:04:08.155Z,6.73
2018-03-11T18:06:42.918Z,4.90
2018-03-11T18:09:18.267Z,4.87
2018-03-11T18:11:53.161Z,5.17
2018-03-11T18:14:27.854Z,7.13
2018-03-11T18:17:02.354Z,4.50
2018-03-11T18:19:37.714Z,5.07
2018-03-11T18:22:12.330Z,5.27
2018-03-11T18:24:46.943Z,4.53
2018-03-11T18:27:21.846Z,6.90
2018-03-11T18:29:56.630Z,7.33
2018-03-11T18:32:31.291Z,4.67
2018-03-11T18:35:06.560Z,5.33
2018-03-11T18:37:41.496Z,5.53
2018-03-11T18:40:16.033Z,4.40
2018-03-11T18:42:50.627Z,4.87
2018-03-11T18:45:25.252Z,4.97
2018-03-11T18:48:00.032Z,4.23
2018-03-11T18:50:34.618Z,5.93
2018-03-11T18:53:09.312Z,4.07
2018-03-11T18:55:44.825Z,3.93
2018-03-11T18:58:19.893Z,4.03
2018-03-11T19:00:54.670Z,4.57
2018-03-11T19:03:29.467Z,4.70
2018-03-11T19:06:05.044Z,4.83
2018-03-11T19:08:39.794Z,4.57
2018-03-11T19:11:14.214Z,5.80
2018-03-11T19:13:49.268Z,5.33
2018-03-11T19:16:23.791Z,4.73
2018-03-11T19:18:58.550Z,5.00
2018-03-11T19:21:33.254Z,4.30
2018-03-11T19:24:07.969Z,5.10
2018-03-11T19:26:42.604Z,5.10
2018-03-11T19:29:17.225Z,4.70
2018-03-11T19:31:51.929Z,5.00
2018-03-11T19:34:26.762Z,6.40
2018-03-11T19:37:01.713Z,6.93
2018-03-11T19:39:37.182Z,5.03
2018-03-11T19:42:12.668Z,4.70
2018-03-11T19:44:47.613Z,5.30
2018-03-11T19:47:22.140Z,5.03
2018-03-11T19:49:56.736Z,5.90
2018-03-11T19:52:32.000Z,5.93
2018-03-11T19:55:06.502Z,5.70
2018-03-11T19:57:41.256Z,6.40
2018-03-11T20:00:16.531Z,6.17
2018-03-11T20:02:51.909Z,5.73
2018-03-11T20:05:26.638Z,6.13
2018-03-11T20:08:01.183Z,6.70
2018-03-11T20:10:36.532Z,5.80
2018-03-11T20:13:11.143Z,7.03
2018-03-11T20:15:45.731Z,7.47
2018-03-11T20:18:20.370Z,6.87
2018-03-11T20:20:54.958Z,7.17
2018-03-11T20:23:30.293Z,7.33
2018-03-11T20:26:05.011Z,7.53
2018-03-11T20:28:39.700Z,7.40
2018-03-11T20:31:15.341Z,7.13
2018-03-11T20:33:50.132Z,6.10
2018-03-11T20:36:24.867Z,6.77
2018-03-11T20:39:00.271Z,6.60
2018-03-11T20:41:34.927Z,10.60
2018-03-11T20:44:10.311Z,6.30
2018-03-11T20:46:45.492Z,9.10
2018-03-11T20:49:19.952Z,7.90
2018-03-11T20:51:54.481Z,7.90
2018-03-11T20:54:29.400Z,6.67
2018-03-11T20:57:04.373Z,5.40
2018-03-11T20:59:39.164Z,6.23
2018-03-11T21:02:14.184Z,9.20
2018-03-11T21:04:48.762Z,5.50
2018-03-11T21:07:23.379Z,5.70
2018-03-11T21:09:58.123Z,5.23
2018-03-11T21:12:32.724Z,5.67
2018-03-11T21:15:07.300Z,5.80
2018-03-11T21:17:41.924Z,5.87
2018-03-11T21:20:16.615Z,5.57
2018-03-11T21:22:51.194Z,6.80
2018-03-11T21:25:26.107Z,6.40
2018-03-11T21:28:00.675Z,6.43
2018-03-11T21:30:36.140Z,6.70
2018-03-11T21:33:10.867Z,6.67
2018-03-11T21:35:45.974Z,6.87
2018-03-11T21:38:20.498Z,6.87
2018-03-11T21:40:56.160Z,7.70
2018-03-11T21:43:30.678Z,8.13
2018-03-11T21:46:05.203Z,7.50
2018-03-11T21:48:40.282Z,7.93
2018-03-11T21:51:15.686Z,7.83
2018-03-11T21:53:51.080Z,7.20
2018-03-11T21:56:25.894Z,6.90
2018-03-11T21:59:00.587Z,8.43
2018-03-11T22:01:35.180Z,6.90
2018-03-11T22:04:09.932Z,8.83
2018-03-11T22:06:44.875Z,7.10
2018-03-11T22:09:19.559Z,6.60
2018-03-11T22:11:55.054Z,6.53
2018-03-11T22:14:29.935Z,6.77
2018-03-11T22:17:05.148Z,7.27
2018-03-11T22:19:40.446Z,7.07
2018-03-11T22:22:15.322Z,6.67
2018-03-11T22:24:50.054Z,7.47
2018-03-11T22:27:26.456Z,7.27
2018-03-11T22:30:01.006Z,6.70
2018-03-11T22:32:35.660Z,6.63
2018-03-11T22:35:10.488Z,6.43
2018-03-11T22:37:45.063Z,6.60
2018-03-11T22:40:19.631Z,7.20
2018-03-11T22:42:54.297Z,6.67
2018-03-11T22:45:28.817Z,7.10
2018-03-11T22:48:03.270Z,7.27
2018-03-11T22:50:37.899Z,6.97
2018-03-11T22:53:12.319Z,7.00
2018-03-11T22:55:47.172Z,7.37
2018-03-11T22:58:22.546Z,10.00
2018-03-11T23:00:58.156Z,6.77
2018-03-11T23:03:34.276Z,7.00
2018-03-11T23:06:09.687Z,7.23
2018-03-11T23:08:44.412Z,7.37
2018-03-11T23:11:19.067Z,7.17
2018-03-11T23:13:53.914Z,7.30
2018-03-11T23:16:29.373Z,6.67
2018-03-11T23:19:15.341Z,6.53
2018-03-11T23:21:49.798Z,7.57
2018-03-11T23:24:24.360Z,6.83
2018-03-11T23:26:59.001Z,6.63
2018-03-11T23:29:34.398Z,6.90
2018-03-11T23:32:09.121Z,6.97
2018-03-11T23:34:43.672Z,7.30
2018-03-11T23:37:18.404Z,8.60
2018-03-11T23:39:53.744Z,8.80
2018-03-11T23:42:28.459Z,6.33
2018-03-11T23:45:03.989Z,7.20
2018-03-11T23:47:38.689Z,9.10
2018-03-11T23:50:13.427Z,7.30
2018-03-11T23:52:48.899Z,6.87
2018-03-11T23:55:23.431Z,6.53
2018-03-11T23:57:58.110Z,6.87
